Latest Weather Observations for Esperance Airport

IDW60801

Issued at 6:05 pm WST Thursday 2 October 2014 (issued every 30 minutes, with the page automatically refreshed every 10 minutes)

About weather observations | Map of weather stations | Latest weather observations for WA | Other Formats
Station Details ID: 009542 Name: ESPERANCE AERO Lat: -33.68 Lon: 121.83 Height: 142.0 m
Data from the previous 72 hours. | See also: Recent months at Esperance Airport
Date/Time
WST
Temp
°C
App
Temp
°C
Dew
Point
Rel
Hum
%
Delta-T
°C
Wind Press
QNH
hPa
Press
MSL
hPa
Rain
since 9 am
mm
Dir
 
Spd
km/h
Gust
km/h
Spd
kts
Gust
kts
02/06:00pm 24.0 20.4 8.4 37 8.4 NE 17 24 9 13 1011.6 1011.4 0.0
02/05:30pm 25.0 21.5 8.9 36 8.8 NE 17 26 9 14 1011.7 1011.5 0.0
02/05:00pm 26.0 22.7 9.4 35 9.2 NE 17 26 9 14 1012.0 1011.8 0.0
02/04:30pm 26.8 22.8 9.2 33 9.7 NE 20 30 11 16 1012.0 1011.8 0.0
02/04:00pm 27.2 23.1 8.6 31 10.2 NE 20 32 11 17 1011.8 1011.6 0.0
02/03:30pm 27.8 23.4 9.1 31 10.4 NE 22 35 12 19 1012.0 1011.8 0.0
02/03:00pm 27.0 22.0 9.4 33 9.8 NE 26 37 14 20 1012.3 1012.1 0.0
02/02:30pm 27.0 22.7 9.4 33 9.8 NE 22 33 12 18 1012.7 1012.5 0.0
02/02:00pm 26.5 22.0 10.2 36 9.1 NE 24 35 13 19 1013.5 1013.3 0.0
02/01:30pm 26.0 21.8 11.0 39 8.5 NE 24 35 13 19 1014.1 1013.9 0.0
02/01:00pm 24.5 20.6 9.6 39 8.2 NE 20 30 11 16 1014.7 1014.6 0.0
02/12:30pm 24.1 20.0 11.4 45 7.2 NE 24 33 13 18 1015.7 1015.6 0.0
02/12:00pm 23.7 19.6 11.4 46 6.9 NNE 24 33 13 18 1016.7 1016.5 0.0
02/11:30am 21.1 18.3 11.2 53 5.5 NE 17 28 9 15 1017.3 1017.1 0.0
02/11:00am 21.2 17.8 10.7 51 5.8 NE 19 32 10 17 1017.7 1017.5 0.0
02/10:30am 21.8 18.7 11.5 52 5.8 NNE 19 26 10 14 1018.9 1018.7 0.0
02/10:00am 21.0 16.7 10.8 52 5.6 N 24 32 13 17 1019.9 1019.7 0.0
02/09:30am 21.5 17.0 11.5 53 5.6 N 26 35 14 19 1020.2 1020.0 0.0
02/09:00am 18.4 13.9 11.5 64 3.8 N 26 33 14 18 1020.8 1020.7 0.0
02/08:30am 16.5 12.3 11.2 71 2.9 N 24 32 13 17 1021.3 1021.2 0.0
02/08:00am 15.4 11.1 10.8 74 2.4 N 24 32 13 17 1021.4 1021.3 0.0
02/07:30am 15.5 11.6 10.9 74 2.5 NNE 22 32 12 17 1020.6 1020.5 0.0
02/07:00am 14.9 11.5 11.1 78 2.0 NNE 20 28 11 15 1020.4 1020.2 0.0
02/06:30am 14.2 10.4 11.0 81 1.7 NNE 22 32 12 17 1020.3 1020.1 0.0
02/06:00am 13.5 9.6 10.7 83 1.5 NNE 22 32 12 17 1020.2 1020.0 0.0
02/05:30am 13.8 9.5 10.8 82 1.6 NNE 24 35 13 19 1020.3 1020.1 0.0
02/05:00am 14.0 10.5 11.0 82 1.6 NNE 20 33 11 18 1019.4 1019.2 0.0
02/04:30am 13.7 10.2 11.0 84 1.4 NNE 20 26 11 14 1019.2 1019.0 0.0
02/04:00am 13.7 9.5 11.2 85 1.3 NNE 24 33 13 18 1019.1 1018.9 0.0
02/03:30am 13.4 9.6 11.3 87 1.1 NNE 22 33 12 18 1018.5 1018.3 0.0
02/03:00am 13.4 9.3 11.5 88 1.0 NE 24 37 13 20 1017.9 1017.7 0.0
02/02:30am 13.1 8.6 11.3 89 1.0 NNE 26 37 14 20 1019.0 1018.8 0.0
02/02:00am 12.7 8.5 11.1 90 0.8 NNE 24 35 13 19 1019.5 1019.3 0.0
02/01:30am 12.7 8.5 11.1 90 0.8 NNE 24 35 13 19 1019.9 1019.7 0.0
02/01:00am 12.6 8.4 11.2 91 0.7 NNE 24 33 13 18 1020.4 1020.2 0.0
02/12:30am 12.4 9.0 11.1 92 0.7 NNE 20 26 11 14 1020.8 1020.7 0.0
02/12:00am 12.7 9.3 11.1 90 0.8 NE 20 26 11 14 1021.0 1020.9 0.0
 
Date/Time
WST
Temp
°C
App
Temp
°C
Dew
Point
Rel
Hum
%
Delta-T
°C
Wind Press
QNH
hPa
Press
MSL
hPa
Rain
since 9 am
mm
Dir
 
Spd
km/h
Gust
km/h
Spd
kts
Gust
kts
01/11:30pm 12.7 9.8 11.1 90 0.8 NE 17 26 9 14 1021.0 1020.9 0.0
01/11:00pm 13.2 10.0 11.3 88 1.0 NE 19 28 10 15 1021.3 1021.2 0.0
01/10:30pm 13.4 10.2 11.1 86 1.2 NE 19 30 10 16 1021.5 1021.4 0.0
01/10:00pm 13.7 10.4 11.0 84 1.4 NE 19 30 10 16 1021.8 1021.7 0.0
01/09:30pm 14.0 11.2 11.2 83 1.5 ENE 17 24 9 13 1021.9 1021.8 0.0
01/09:00pm 14.4 10.7 11.4 82 1.6 ENE 22 32 12 17 1022.0 1021.9 0.0
01/08:30pm 14.9 11.5 11.3 79 1.9 ENE 20 30 11 16 1022.2 1022.1 0.0
01/08:00pm 15.8 12.1 11.6 76 2.3 E 22 30 12 16 1022.1 1022.0 0.0
01/07:30pm 16.5 12.6 12.1 75 2.4 E 24 33 13 18 1022.1 1022.0 0.0
01/07:00pm 17.0 14.0 12.7 76 2.4 E 20 26 11 14 1022.0 1021.9 0.0
01/06:30pm 15.8 13.6 13.3 85 1.4 ESE 17 19 9 10 1021.7 1021.6 0.0
01/06:00pm 17.0 14.9 13.5 80 2.0 ESE 17 22 9 12 1021.6 1021.5 0.0
01/05:30pm 18.8 16.2 13.9 73 2.8 SE 20 30 11 16 1021.4 1021.3 0.0
01/05:00pm 20.4 17.4 13.8 66 3.8 ESE 22 30 12 16 1021.3 1021.2 0.0
01/04:30pm 21.0 17.2 13.7 63 4.2 SE 26 33 14 18 1021.3 1021.2 0.0
01/04:00pm 21.8 18.1 13.9 61 4.6 SE 26 35 14 19 1021.1 1021.0 0.0
01/03:30pm 24.6 21.9 10.5 41 7.9 E 15 22 8 12 1021.1 1021.0 0.0
01/03:00pm 24.8 21.7 11.7 44 7.5 E 19 26 10 14 1020.9 1020.8 0.0
01/02:30pm 24.9 22.5 11.5 43 7.6 ENE 15 20 8 11 1021.3 1021.2 0.0
01/02:00pm 24.3 21.2 11.6 45 7.2 ENE 19 24 10 13 1021.8 1021.7 0.0
01/01:30pm 24.3 22.2 12.3 47 6.9 NNE 15 22 8 12 1022.2 1022.1 0.0
01/01:00pm 23.1 19.2 10.9 46 6.8 ENE 22 32 12 17 1022.8 1022.7 0.0
01/12:30pm 23.0 20.0 12.0 50 6.3 E 19 22 10 12 1023.2 1023.1 0.0
01/12:00pm 22.5 19.9 11.9 51 6.0 NE 17 26 9 14 1024.1 1023.9 0.0
01/11:30am 21.8 18.9 12.4 55 5.4 ENE 19 30 10 16 1024.4 1024.2 0.0
01/11:00am 20.6 17.5 11.5 56 5.0 NE 19 28 10 15 1025.0 1024.8 0.0
01/10:30am 20.5 17.7 12.5 60 4.5 NNE 19 28 10 15 1025.3 1025.1 0.0
01/10:00am 19.6 17.0 13.1 66 3.7 NNE 19 26 10 14 1025.5 1025.3 0.0
01/09:30am 18.4 15.4 12.4 68 3.4 NE 20 28 11 15 1025.7 1025.5 0.0
01/09:00am 16.9 13.3 11.8 72 2.8 NE 22 33 12 18 1026.1 1025.9 0.0
01/08:30am 15.7 12.5 11.9 78 2.1 NE 20 30 11 16 1026.3 1026.1 0.0
01/08:00am 13.7 10.0 11.6 87 1.1 NNE 22 33 12 18 1026.4 1026.2 0.0
01/07:30am 12.2 7.9 10.9 92 0.7 NNE 24 35 13 19 1026.3 1026.3 0.0
01/07:00am 11.5 7.8 10.2 92 0.7 NNE 20 32 11 17 1026.4 1026.4 0.0
01/06:30am 10.7 7.4 9.5 92 0.6 NE 17 26 9 14 1026.4 1026.4 0.0
01/06:00am 10.1 7.0 9.0 93 0.5 NE 15 24 8 13 1026.2 1026.2 0.0
01/05:30am 10.1 6.7 9.0 93 0.5 NE 17 24 9 13 1026.0 1026.0 0.0
01/05:00am 10.2 6.4 9.0 92 0.6 NE 19 28 10 15 1026.0 1026.0 0.0
01/04:30am 10.1 7.0 8.9 92 0.6 NE 15 28 8 15 1026.0 1026.0 0.0
01/04:00am 10.0 6.9 8.8 92 0.6 NE 15 24 8 13 1026.0 1026.0 0.0
01/03:30am 9.8 6.6 8.6 92 0.6 NE 15 24 8 13 1026.0 1026.0 0.0
01/03:00am 10.0 6.9 8.9 93 0.5 NE 15 22 8 12 1026.0 1026.0 0.0
01/02:30am 9.5 6.6 8.3 92 0.6 ENE 13 24 7 13 1025.9 1025.9 0.0
01/02:00am 10.1 7.4 8.9 92 0.6 NE 13 19 7 10 1026.1 1026.1 0.0
01/01:30am 10.0 7.3 9.1 94 0.4 ENE 13 19 7 10 1026.4 1026.4 0.0
01/01:00am 10.0 7.7 8.9 93 0.5 ENE 11 19 6 10 1026.5 1026.5 0.0
01/12:30am 10.3 7.6 9.1 92 0.6 ENE 13 20 7 11 1026.7 1026.7 0.0
01/12:00am 10.2 7.5 8.8 91 0.7 ENE 13 17 7 9 1026.6 1026.6 0.0
 
Date/Time
WST
Temp
°C
App
Temp
°C
Dew
Point
Rel
Hum
%
Delta-T
°C
Wind Press
QNH
hPa
Press
MSL
hPa
Rain
since 9 am
mm
Dir
 
Spd
km/h
Gust
km/h
Spd
kts
Gust
kts
30/11:30pm 10.4 7.7 9.0 91 0.7 ENE 13 20 7 11 1026.6 1026.6 0.0
30/11:00pm 10.4 8.2 9.2 92 0.6 ENE 11 17 6 9 1026.5 1026.5 0.0
30/10:30pm 10.5 7.9 9.4 93 0.6 ENE 13 19 7 10 1026.6 1026.6 0.0
30/10:00pm 10.7 8.6 9.6 93 0.6 ENE 11 15 6 8 1026.6 1026.6 0.0
30/09:30pm 11.1 9.0 9.7 91 0.7 ENE 11 15 6 8 1026.7 1026.7 0.0
30/09:00pm 11.8 9.8 10.2 90 0.8 E 11 17 6 9 1026.6 1026.6 0.0
30/08:30pm 12.2 10.2 10.3 88 1.0 E 11 17 6 9 1026.5 1026.5 0.0
30/08:00pm 12.7 10.4 10.4 86 1.2 E 13 19 7 10 1026.2 1026.2 0.0
30/07:30pm 12.6 10.3 10.5 87 1.1 E 13 17 7 9 1026.0 1026.0 0.0
30/07:00pm 13.0 10.3 10.4 84 1.4 ESE 15 19 8 10 1025.7 1025.7 0.0
30/06:30pm 12.8 10.4 10.0 83 1.4 SE 13 15 7 8 1025.2 1025.1 0.0
30/06:00pm 13.6 11.2 10.0 79 1.9 SE 13 17 7 9 1024.9 1024.8 0.0
30/05:30pm 15.0 11.9 10.2 73 2.5 SE 17 22 9 12 1024.8 1024.7 0.0
30/05:00pm 16.0 12.5 10.1 68 3.1 SE 19 22 10 12 1024.6 1024.5 0.0
30/04:30pm 17.0 13.9 10.4 65 3.5 SE 17 20 9 11 1024.4 1024.3 0.0
30/04:00pm 17.9 14.4 10.8 63 3.8 S 20 26 11 14 1024.1 1024.0 0.0
30/03:30pm 17.2 13.7 10.8 66 3.5 SSE 20 24 11 13 1023.9 1023.8 0.0
30/03:00pm 17.6 14.0 10.7 64 3.7 SSE 20 28 11 15 1023.5 1023.5 0.0
30/02:30pm 19.9 17.9 11.4 58 4.7 S 13 19 7 10 1023.3 1023.3 0.0
30/02:00pm 19.2 18.0 11.7 62 4.1 SE 9 19 5 10 1023.5 1023.5 0.0
30/01:30pm 18.6 16.6 11.4 63 4.0 S 13 20 7 11 1023.5 1023.5 0.0
30/01:00pm 17.9 15.9 11.5 66 3.5 SE 13 20 7 11 1023.7 1023.7 0.0
30/12:30pm 18.1 17.0 10.5 61 4.1 SSE 7 13 4 7 1023.7 1023.7 0.0
30/12:00pm 17.6 15.1 11.2 66 3.5 S 15 20 8 11 1024.0 1023.9 0.0
30/11:30am 18.9 17.3 11.7 63 4.0 SSW 11 19 6 10 1024.1 1024.0 0.0
30/11:00am 17.6 15.2 11.4 67 3.4 S 15 20 8 11 1024.2 1024.1 0.0
30/10:30am 17.9 16.1 13.4 75 2.6 SSE 15 22 8 12 1024.3 1024.2 0.0
30/10:00am 15.1 12.4 12.8 86 1.3 WSW 19 22 10 12 1024.3 1024.2 0.0
30/09:30am 17.2 14.2 12.1 72 2.8 SW 19 26 10 14 1024.2 1024.1 0.0
30/09:00am 15.0 13.9 13.0 88 1.1 W 11 15 6 8 1024.0 1023.9 0.2
30/08:30am 14.2 12.9 13.7 97 0.3 W 13 15 7 8 1023.9 1023.8 0.2
30/08:15am 13.8 11.6 13.2 96 0.3 W 17 20 9 11 1023.6 1023.6 0.2
30/08:00am 13.5 11.6 12.9 96 0.3 W 15 20 8 11 1023.4 1023.4 0.2
30/07:57am 13.7 11.9 13.2 97 0.3 W 15 20 8 11 1023.4 1023.4 0.0
30/07:30am 13.7 12.2 13.1 96 0.3 W 13 19 7 10 1022.9 1022.9 0.0
30/07:28am 13.8 12.3 13.2 96 0.3 WSW 13 19 7 10 1022.9 1022.9 0.0
30/07:08am 13.4 11.9 13.1 98 0.2 W 13 19 7 10 1022.7 1022.7 0.0
30/07:00am 13.3 11.4 13.0 98 0.2 W 15 22 8 12 1022.6 1022.6 0.0
30/06:30am 13.0 12.1 12.7 98 0.2 W 9 11 5 6 1022.3 1022.3 0.0
30/06:00am 12.5 11.5 12.2 98 0.2 W 9 13 5 7 1021.8 1021.8 0.0
30/05:30am 11.9 10.2 11.3 96 0.3 W 11 11 6 6 1021.5 1021.5 0.0
30/05:00am 12.8 11.0 12.0 95 0.4 WSW 13 19 7 10 1021.1 1021.1 0.0
30/04:30am 13.2 12.3 12.7 97 0.3 WSW 9 15 5 8 1020.8 1020.8 0.0
30/04:00am 13.0 12.7 12.7 98 0.2 W 6 7 3 4 1020.4 1020.4 0.0
30/03:30am 13.0 12.1 12.5 97 0.3 WSW 9 13 5 7 1020.0 1020.0 0.0
30/03:00am 13.0 11.3 12.4 96 0.3 SW 13 17 7 9 1019.7 1019.7 0.0
30/02:57am 13.0 10.9 12.4 96 0.3 SW 15 20 8 11 1019.7 1019.7 0.0
30/02:30am 13.3 11.6 12.4 94 0.5 SW 13 24 7 13 1019.5 1019.4 0.0
30/02:28am 13.3 11.6 12.4 94 0.5 SW 13 24 7 13 1019.4 1019.3 0.0
30/02:00am 14.2 11.6 12.1 87 1.1 SSW 17 24 9 13 1019.2 1019.1 0.0
30/01:30am 14.3 11.7 12.0 86 1.2 SW 17 24 9 13 1019.1 1019.0 0.0
30/01:00am 14.2 11.7 12.2 88 1.1 SW 17 24 9 13 1019.2 1019.1 0.0
30/12:30am 13.4 12.1 12.5 94 0.5 SW 11 17 6 9 1019.1 1019.0 0.0
30/12:00am 12.6 11.0 11.7 94 0.5 WSW 11 13 6 7 1018.8 1018.7 0.0
 
Date/Time
WST
Temp
°C
App
Temp
°C
Dew
Point
Rel
Hum
%
Delta-T
°C
Wind Press
QNH
hPa
Press
MSL
hPa
Rain
since 9 am
mm
Dir
 
Spd
km/h
Gust
km/h
Spd
kts
Gust
kts
29/11:30pm 12.4 10.3 11.1 92 0.7 WSW 13 15 7 8 1018.8 1018.7 0.0
29/11:00pm 12.9 11.2 11.1 89 1.0 WSW 11 15 6 8 1018.7 1018.6 0.0
29/10:30pm 13.6 11.2 11.3 86 1.2 SW 15 19 8 10 1018.9 1018.8 0.0
29/10:00pm 13.8 11.8 11.5 86 1.2 SW 13 17 7 9 1018.9 1018.8 0.0
29/09:30pm 13.6 12.1 11.8 89 1.0 SW 11 15 6 8 1019.1 1019.0 0.0
29/09:00pm 13.4 11.2 12.0 91 0.8 SSW 15 17 8 9 1018.9 1018.8 0.0
29/08:30pm 13.3 11.4 11.9 91 0.8 SW 13 15 7 8 1018.6 1018.5 0.0
29/08:00pm 13.3 11.8 11.9 91 0.8 SW 11 15 6 8 1018.3 1018.2 0.0
29/07:30pm 14.2 11.7 12.2 88 1.1 SSW 17 20 9 11 1017.6 1017.5 0.0
29/07:00pm 15.0 12.3 12.9 87 1.2 SSW 19 24 10 13 1017.0 1016.9 0.0
29/06:30pm 15.1 12.9 13.3 89 1.0 S 17 22 9 12 1016.5 1016.4 0.0

Other Formats:

Comma delimited format used in spreadsheet applications
http://www.bom.gov.au/fwo/IDW60801/IDW60801.95638.axf

JavaScript Object Notation format (JSON) in row-major order
http://www.bom.gov.au/fwo/IDW60801/IDW60801.95638.json